sensor_id;sensor_type;location;lat;lon;timestamp;P1;durP1;ratioP1;P2;durP2;ratioP2
7529;SDS011;3806;52.270;10.544;2022-12-18T00:01:03;18.38;;;10.77;;
7529;SDS011;3806;52.270;10.544;2022-12-18T00:03:34;15.75;;;10.10;;
7529;SDS011;3806;52.270;10.544;2022-12-18T00:06:00;19.05;;;10.27;;
7529;SDS011;3806;52.270;10.544;2022-12-18T00:08:27;20.83;;;11.98;;
7529;SDS011;3806;52.270;10.544;2022-12-18T00:10:53;18.75;;;10.73;;
7529;SDS011;3806;52.270;10.544;2022-12-18T00:13:19;19.55;;;11.00;;
7529;SDS011;3806;52.270;10.544;2022-12-18T00:15:44;21.42;;;10.60;;
7529;SDS011;3806;52.270;10.544;2022-12-18T00:18:10;19.70;;;10.45;;
7529;SDS011;3806;52.270;10.544;2022-12-18T00:20:36;15.38;;;8.70;;
7529;SDS011;3806;52.270;10.544;2022-12-18T00:23:03;18.85;;;10.50;;
7529;SDS011;3806;52.270;10.544;2022-12-18T00:25:29;12.65;;;9.82;;
7529;SDS011;3806;52.270;10.544;2022-12-18T00:27:57;15.68;;;9.75;;
7529;SDS011;3806;52.270;10.544;2022-12-18T00:30:22;21.00;;;9.32;;
7529;SDS011;3806;52.270;10.544;2022-12-18T00:32:48;19.02;;;10.13;;
7529;SDS011;3806;52.270;10.544;2022-12-18T00:35:13;17.52;;;10.60;;
7529;SDS011;3806;52.270;10.544;2022-12-18T00:37:39;16.75;;;9.57;;
7529;SDS011;3806;52.270;10.544;2022-12-18T00:40:05;16.70;;;10.10;;
7529;SDS011;3806;52.270;10.544;2022-12-18T00:42:31;22.15;;;9.95;;
7529;SDS011;3806;52.270;10.544;2022-12-18T00:45:15;18.90;;;10.60;;
7529;SDS011;3806;52.270;10.544;2022-12-18T00:47:40;22.30;;;10.73;;
7529;SDS011;3806;52.270;10.544;2022-12-18T00:50:06;25.02;;;11.48;;
7529;SDS011;3806;52.270;10.544;2022-12-18T00:52:32;22.73;;;10.80;;
7529;SDS011;3806;52.270;10.544;2022-12-18T00:54:58;18.15;;;9.90;;
7529;SDS011;3806;52.270;10.544;2022-12-18T00:57:23;15.70;;;8.40;;
7529;SDS011;3806;52.270;10.544;2022-12-18T00:59:49;19.45;;;11.38;;
7529;SDS011;3806;52.270;10.544;2022-12-18T01:02:14;16.55;;;8.93;;
7529;SDS011;3806;52.270;10.544;2022-12-18T01:04:40;15.80;;;8.90;;
7529;SDS011;3806;52.270;10.544;2022-12-18T01:07:06;15.38;;;9.15;;
7529;SDS011;3806;52.270;10.544;2022-12-18T01:09:31;19.75;;;10.05;;
7529;SDS011;3806;52.270;10.544;2022-12-18T01:11:57;18.40;;;12.18;;
7529;SDS011;3806;52.270;10.544;2022-12-18T01:14:22;14.40;;;10.50;;
7529;SDS011;3806;52.270;10.544;2022-12-18T01:16:48;19.17;;;9.70;;
7529;SDS011;3806;52.270;10.544;2022-12-18T01:19:13;16.45;;;8.95;;
7529;SDS011;3806;52.270;10.544;2022-12-18T01:21:39;16.30;;;10.10;;
7529;SDS011;3806;52.270;10.544;2022-12-18T01:24:05;16.13;;;9.63;;
7529;SDS011;3806;52.270;10.544;2022-12-18T01:26:31;14.80;;;9.63;;
7529;SDS011;3806;52.270;10.544;2022-12-18T01:28:57;20.15;;;10.93;;
7529;SDS011;3806;52.270;10.544;2022-12-18T01:31:24;17.80;;;9.73;;
7529;SDS011;3806;52.270;10.544;2022-12-18T01:33:51;15.52;;;9.82;;
7529;SDS011;3806;52.270;10.544;2022-12-18T01:36:19;16.75;;;10.57;;
7529;SDS011;3806;52.270;10.544;2022-12-18T01:38:47;16.98;;;11.50;;
7529;SDS011;3806;52.270;10.544;2022-12-18T01:41:13;15.60;;;9.68;;
7529;SDS011;3806;52.270;10.544;2022-12-18T01:43:41;17.77;;;10.63;;
7529;SDS011;3806;52.270;10.544;2022-12-18T01:46:12;16.23;;;10.18;;
7529;SDS011;3806;52.270;10.544;2022-12-18T01:48:38;17.83;;;10.82;;
7529;SDS011;3806;52.270;10.544;2022-12-18T01:51:05;16.90;;;9.27;;
7529;SDS011;3806;52.270;10.544;2022-12-18T01:53:33;16.42;;;10.02;;
7529;SDS011;3806;52.270;10.544;2022-12-18T01:55:58;14.38;;;9.63;;
7529;SDS011;3806;52.270;10.544;2022-12-18T01:58:46;14.10;;;9.75;;
7529;SDS011;3806;52.270;10.544;2022-12-18T02:01:19;17.80;;;9.57;;
7529;SDS011;3806;52.270;10.544;2022-12-18T02:03:47;14.95;;;8.65;;
7529;SDS011;3806;52.270;10.544;2022-12-18T02:06:15;15.63;;;9.02;;
7529;SDS011;3806;52.270;10.544;2022-12-18T02:08:57;17.23;;;9.63;;
7529;SDS011;3806;52.270;10.544;2022-12-18T02:14:35;13.77;;;8.02;;
7529;SDS011;3806;52.270;10.544;2022-12-18T02:17:07;19.40;;;9.30;;
7529;SDS011;3806;52.270;10.544;2022-12-18T02:20:07;15.00;;;8.38;;
7529;SDS011;3806;52.270;10.544;2022-12-18T02:28:16;14.20;;;8.57;;
7529;SDS011;3806;52.270;10.544;2022-12-18T02:30:47;13.55;;;9.63;;
7529;SDS011;3806;52.270;10.544;2022-12-18T02:33:15;18.48;;;9.50;;
7529;SDS011;3806;52.270;10.544;2022-12-18T02:35:41;18.73;;;9.20;;
7529;SDS011;3806;52.270;10.544;2022-12-18T02:38:09;16.00;;;9.38;;
7529;SDS011;3806;52.270;10.544;2022-12-18T02:40:37;15.73;;;9.43;;
7529;SDS011;3806;52.270;10.544;2022-12-18T02:43:08;17.73;;;8.63;;
7529;SDS011;3806;52.270;10.544;2022-12-18T02:45:45;18.70;;;9.63;;
7529;SDS011;3806;52.270;10.544;2022-12-18T02:48:32;16.40;;;9.23;;
7529;SDS011;3806;52.270;10.544;2022-12-18T02:51:04;16.98;;;9.57;;
7529;SDS011;3806;52.270;10.544;2022-12-18T02:53:43;15.45;;;8.45;;
7529;SDS011;3806;52.270;10.544;2022-12-18T02:59:13;12.30;;;7.25;;
7529;SDS011;3806;52.270;10.544;2022-12-18T03:01:50;19.20;;;9.43;;
7529;SDS011;3806;52.270;10.544;2022-12-18T03:04:22;15.13;;;8.70;;
7529;SDS011;3806;52.270;10.544;2022-12-18T03:09:21;16.10;;;7.60;;
7529;SDS011;3806;52.270;10.544;2022-12-18T03:11:53;18.33;;;9.70;;
7529;SDS011;3806;52.270;10.544;2022-12-18T03:14:42;11.80;;;7.38;;
7529;SDS011;3806;52.270;10.544;2022-12-18T03:17:10;16.38;;;8.80;;
7529;SDS011;3806;52.270;10.544;2022-12-18T03:19:41;17.42;;;9.93;;
7529;SDS011;3806;52.270;10.544;2022-12-18T03:22:08;13.07;;;7.50;;
7529;SDS011;3806;52.270;10.544;2022-12-18T03:24:35;13.80;;;9.20;;
7529;SDS011;3806;52.270;10.544;2022-12-18T03:27:05;13.88;;;9.00;;
7529;SDS011;3806;52.270;10.544;2022-12-18T03:29:41;15.98;;;8.10;;
7529;SDS011;3806;52.270;10.544;2022-12-18T03:32:12;12.82;;;8.57;;
7529;SDS011;3806;52.270;10.544;2022-12-18T03:34:44;16.83;;;8.30;;
7529;SDS011;3806;52.270;10.544;2022-12-18T03:37:14;14.30;;;9.30;;
7529;SDS011;3806;52.270;10.544;2022-12-18T03:39:39;12.45;;;7.78;;
7529;SDS011;3806;52.270;10.544;2022-12-18T03:42:10;17.88;;;8.73;;
7529;SDS011;3806;52.270;10.544;2022-12-18T03:44:51;15.20;;;8.80;;
7529;SDS011;3806;52.270;10.544;2022-12-18T03:47:25;15.68;;;8.23;;
7529;SDS011;3806;52.270;10.544;2022-12-18T03:50:06;12.23;;;6.95;;
7529;SDS011;3806;52.270;10.544;2022-12-18T03:55:09;16.17;;;7.63;;
7529;SDS011;3806;52.270;10.544;2022-12-18T03:57:37;15.43;;;8.48;;
7529;SDS011;3806;52.270;10.544;2022-12-18T04:00:05;13.43;;;8.32;;
7529;SDS011;3806;52.270;10.544;2022-12-18T04:02:34;12.88;;;7.55;;
7529;SDS011;3806;52.270;10.544;2022-12-18T04:05:01;10.95;;;7.85;;
7529;SDS011;3806;52.270;10.544;2022-12-18T04:07:29;10.18;;;7.65;;
7529;SDS011;3806;52.270;10.544;2022-12-18T04:09:56;16.85;;;7.72;;
7529;SDS011;3806;52.270;10.544;2022-12-18T04:12:26;13.18;;;8.32;;
7529;SDS011;3806;52.270;10.544;2022-12-18T04:14:54;11.90;;;7.07;;
7529;SDS011;3806;52.270;10.544;2022-12-18T04:17:20;13.43;;;7.28;;
7529;SDS011;3806;52.270;10.544;2022-12-18T04:19:45;15.07;;;7.75;;
7529;SDS011;3806;52.270;10.544;2022-12-18T04:22:11;9.65;;;6.57;;
7529;SDS011;3806;52.270;10.544;2022-12-18T04:24:37;11.43;;;6.93;;
7529;SDS011;3806;52.270;10.544;2022-12-18T04:27:03;15.73;;;9.00;;
7529;SDS011;3806;52.270;10.544;2022-12-18T04:29:28;13.48;;;7.57;;
7529;SDS011;3806;52.270;10.544;2022-12-18T04:31:54;13.10;;;8.48;;
7529;SDS011;3806;52.270;10.544;2022-12-18T04:34:20;14.85;;;8.68;;
7529;SDS011;3806;52.270;10.544;2022-12-18T04:36:46;14.75;;;8.95;;
7529;SDS011;3806;52.270;10.544;2022-12-18T04:39:11;11.70;;;7.72;;
7529;SDS011;3806;52.270;10.544;2022-12-18T04:41:37;16.45;;;8.57;;
7529;SDS011;3806;52.270;10.544;2022-12-18T04:44:03;11.00;;;7.53;;
7529;SDS011;3806;52.270;10.544;2022-12-18T04:46:29;12.38;;;6.53;;
7529;SDS011;3806;52.270;10.544;2022-12-18T04:48:54;13.30;;;7.15;;
7529;SDS011;3806;52.270;10.544;2022-12-18T04:51:20;18.42;;;8.68;;
7529;SDS011;3806;52.270;10.544;2022-12-18T04:53:46;13.13;;;8.10;;
7529;SDS011;3806;52.270;10.544;2022-12-18T04:56:12;16.60;;;8.18;;
7529;SDS011;3806;52.270;10.544;2022-12-18T04:58:40;13.40;;;8.57;;
7529;SDS011;3806;52.270;10.544;2022-12-18T05:01:07;14.15;;;8.30;;
7529;SDS011;3806;52.270;10.544;2022-12-18T05:03:33;14.70;;;8.52;;
7529;SDS011;3806;52.270;10.544;2022-12-18T05:06:00;13.77;;;8.68;;
7529;SDS011;3806;52.270;10.544;2022-12-18T05:08:26;16.25;;;8.57;;
7529;SDS011;3806;52.270;10.544;2022-12-18T05:11:05;17.52;;;8.70;;
7529;SDS011;3806;52.270;10.544;2022-12-18T05:13:33;15.23;;;8.13;;
7529;SDS011;3806;52.270;10.544;2022-12-18T05:16:00;15.65;;;8.63;;
7529;SDS011;3806;52.270;10.544;2022-12-18T05:18:26;14.48;;;7.10;;
7529;SDS011;3806;52.270;10.544;2022-12-18T05:20:52;13.68;;;8.20;;
7529;SDS011;3806;52.270;10.544;2022-12-18T05:23:18;14.65;;;8.15;;
7529;SDS011;3806;52.270;10.544;2022-12-18T05:26:03;14.98;;;8.15;;
7529;SDS011;3806;52.270;10.544;2022-12-18T05:28:31;16.00;;;8.77;;
7529;SDS011;3806;52.270;10.544;2022-12-18T05:30:59;15.18;;;8.25;;
7529;SDS011;3806;52.270;10.544;2022-12-18T05:33:26;14.02;;;8.40;;
7529;SDS011;3806;52.270;10.544;2022-12-18T05:35:55;13.52;;;7.82;;
7529;SDS011;3806;52.270;10.544;2022-12-18T05:38:22;18.40;;;7.43;;
7529;SDS011;3806;52.270;10.544;2022-12-18T05:40:49;13.60;;;7.50;;
7529;SDS011;3806;52.270;10.544;2022-12-18T05:43:15;17.45;;;8.50;;
7529;SDS011;3806;52.270;10.544;2022-12-18T05:45:41;16.67;;;9.23;;
7529;SDS011;3806;52.270;10.544;2022-12-18T05:48:08;10.88;;;6.85;;
7529;SDS011;3806;52.270;10.544;2022-12-18T05:50:37;10.38;;;7.60;;
7529;SDS011;3806;52.270;10.544;2022-12-18T05:53:05;13.75;;;7.30;;
7529;SDS011;3806;52.270;10.544;2022-12-18T05:55:34;19.98;;;8.07;;
7529;SDS011;3806;52.270;10.544;2022-12-18T05:58:01;11.82;;;6.75;;
7529;SDS011;3806;52.270;10.544;2022-12-18T06:00:28;12.50;;;7.00;;
7529;SDS011;3806;52.270;10.544;2022-12-18T06:02:54;18.00;;;6.82;;
7529;SDS011;3806;52.270;10.544;2022-12-18T06:05:19;13.70;;;7.63;;
7529;SDS011;3806;52.270;10.544;2022-12-18T06:07:45;16.65;;;8.25;;
7529;SDS011;3806;52.270;10.544;2022-12-18T06:10:11;15.10;;;8.23;;
7529;SDS011;3806;52.270;10.544;2022-12-18T06:12:36;14.32;;;8.68;;
7529;SDS011;3806;52.270;10.544;2022-12-18T06:15:02;17.67;;;9.10;;
7529;SDS011;3806;52.270;10.544;2022-12-18T06:17:32;14.98;;;7.55;;
7529;SDS011;3806;52.270;10.544;2022-12-18T06:19:58;17.00;;;8.70;;
7529;SDS011;3806;52.270;10.544;2022-12-18T06:22:24;13.63;;;8.73;;
7529;SDS011;3806;52.270;10.544;2022-12-18T06:24:49;11.85;;;7.63;;
7529;SDS011;3806;52.270;10.544;2022-12-18T06:27:15;11.00;;;7.38;;
7529;SDS011;3806;52.270;10.544;2022-12-18T06:29:41;14.10;;;9.30;;
7529;SDS011;3806;52.270;10.544;2022-12-18T06:32:07;17.63;;;9.07;;
7529;SDS011;3806;52.270;10.544;2022-12-18T06:34:33;11.68;;;7.32;;
7529;SDS011;3806;52.270;10.544;2022-12-18T06:36:58;18.63;;;8.95;;
7529;SDS011;3806;52.270;10.544;2022-12-18T06:39:24;18.25;;;8.32;;
7529;SDS011;3806;52.270;10.544;2022-12-18T06:41:52;12.05;;;7.78;;
7529;SDS011;3806;52.270;10.544;2022-12-18T06:44:17;12.63;;;7.78;;
7529;SDS011;3806;52.270;10.544;2022-12-18T06:46:43;12.32;;;6.93;;
7529;SDS011;3806;52.270;10.544;2022-12-18T06:49:08;24.23;;;9.02;;
7529;SDS011;3806;52.270;10.544;2022-12-18T06:51:34;14.02;;;7.28;;
7529;SDS011;3806;52.270;10.544;2022-12-18T06:54:00;14.82;;;7.82;;
7529;SDS011;3806;52.270;10.544;2022-12-18T06:56:26;16.45;;;8.80;;
7529;SDS011;3806;52.270;10.544;2022-12-18T06:58:51;19.45;;;8.10;;
7529;SDS011;3806;52.270;10.544;2022-12-18T07:01:17;11.82;;;6.80;;
7529;SDS011;3806;52.270;10.544;2022-12-18T07:03:43;11.30;;;6.60;;
7529;SDS011;3806;52.270;10.544;2022-12-18T07:06:15;17.90;;;8.55;;
7529;SDS011;3806;52.270;10.544;2022-12-18T07:08:42;12.98;;;8.25;;
7529;SDS011;3806;52.270;10.544;2022-12-18T07:11:08;13.35;;;7.75;;
7529;SDS011;3806;52.270;10.544;2022-12-18T07:13:33;16.95;;;8.15;;
7529;SDS011;3806;52.270;10.544;2022-12-18T07:16:03;15.48;;;7.07;;
7529;SDS011;3806;52.270;10.544;2022-12-18T07:18:36;15.85;;;8.40;;
7529;SDS011;3806;52.270;10.544;2022-12-18T07:21:02;17.35;;;8.38;;
7529;SDS011;3806;52.270;10.544;2022-12-18T07:23:33;18.30;;;9.35;;
7529;SDS011;3806;52.270;10.544;2022-12-18T07:26:06;19.27;;;8.82;;
7529;SDS011;3806;52.270;10.544;2022-12-18T07:28:37;17.63;;;8.48;;
7529;SDS011;3806;52.270;10.544;2022-12-18T07:31:11;18.60;;;7.65;;
7529;SDS011;3806;52.270;10.544;2022-12-18T07:33:39;14.05;;;7.45;;
7529;SDS011;3806;52.270;10.544;2022-12-18T07:36:05;18.73;;;8.25;;
7529;SDS011;3806;52.270;10.544;2022-12-18T07:38:33;15.50;;;8.20;;
7529;SDS011;3806;52.270;10.544;2022-12-18T07:41:03;15.00;;;7.85;;
7529;SDS011;3806;52.270;10.544;2022-12-18T07:43:31;16.27;;;8.23;;
7529;SDS011;3806;52.270;10.544;2022-12-18T07:45:57;16.08;;;7.57;;
7529;SDS011;3806;52.270;10.544;2022-12-18T07:48:22;15.82;;;9.63;;
7529;SDS011;3806;52.270;10.544;2022-12-18T07:50:48;19.25;;;9.45;;
7529;SDS011;3806;52.270;10.544;2022-12-18T07:53:13;20.42;;;9.18;;
7529;SDS011;3806;52.270;10.544;2022-12-18T07:55:40;18.88;;;8.68;;
7529;SDS011;3806;52.270;10.544;2022-12-18T07:58:08;20.83;;;9.55;;
7529;SDS011;3806;52.270;10.544;2022-12-18T08:00:34;19.13;;;8.60;;
7529;SDS011;3806;52.270;10.544;2022-12-18T08:03:00;13.93;;;7.88;;
7529;SDS011;3806;52.270;10.544;2022-12-18T08:05:26;15.52;;;8.50;;
7529;SDS011;3806;52.270;10.544;2022-12-18T08:07:52;15.23;;;9.15;;
7529;SDS011;3806;52.270;10.544;2022-12-18T08:10:18;12.73;;;8.23;;
7529;SDS011;3806;52.270;10.544;2022-12-18T08:12:44;16.42;;;9.25;;
7529;SDS011;3806;52.270;10.544;2022-12-18T08:15:09;13.40;;;8.48;;
7529;SDS011;3806;52.270;10.544;2022-12-18T08:17:35;18.33;;;9.40;;
7529;SDS011;3806;52.270;10.544;2022-12-18T08:20:01;17.17;;;8.32;;
7529;SDS011;3806;52.270;10.544;2022-12-18T08:22:26;16.35;;;8.68;;
7529;SDS011;3806;52.270;10.544;2022-12-18T08:24:52;16.85;;;9.27;;
7529;SDS011;3806;52.270;10.544;2022-12-18T08:27:18;15.93;;;7.80;;
7529;SDS011;3806;52.270;10.544;2022-12-18T08:29:43;11.52;;;8.05;;
7529;SDS011;3806;52.270;10.544;2022-12-18T08:32:09;13.27;;;8.57;;
7529;SDS011;3806;52.270;10.544;2022-12-18T08:34:35;17.23;;;9.10;;
7529;SDS011;3806;52.270;10.544;2022-12-18T08:37:00;14.32;;;7.45;;
7529;SDS011;3806;52.270;10.544;2022-12-18T08:39:26;14.93;;;8.95;;
7529;SDS011;3806;52.270;10.544;2022-12-18T08:41:52;20.98;;;10.15;;
7529;SDS011;3806;52.270;10.544;2022-12-18T08:44:36;17.00;;;8.57;;
7529;SDS011;3806;52.270;10.544;2022-12-18T08:47:05;14.35;;;8.82;;
7529;SDS011;3806;52.270;10.544;2022-12-18T08:49:31;16.23;;;7.85;;
7529;SDS011;3806;52.270;10.544;2022-12-18T08:51:58;19.27;;;9.27;;
7529;SDS011;3806;52.270;10.544;2022-12-18T08:54:23;17.70;;;10.25;;
7529;SDS011;3806;52.270;10.544;2022-12-18T08:56:49;15.70;;;8.75;;
7529;SDS011;3806;52.270;10.544;2022-12-18T08:59:16;15.48;;;9.27;;
7529;SDS011;3806;52.270;10.544;2022-12-18T09:01:42;16.27;;;8.77;;
7529;SDS011;3806;52.270;10.544;2022-12-18T09:04:08;12.90;;;8.43;;
7529;SDS011;3806;52.270;10.544;2022-12-18T09:06:34;14.93;;;8.63;;
7529;SDS011;3806;52.270;10.544;2022-12-18T09:09:00;15.48;;;9.38;;
7529;SDS011;3806;52.270;10.544;2022-12-18T09:11:26;13.93;;;9.27;;
7529;SDS011;3806;52.270;10.544;2022-12-18T09:13:53;16.92;;;9.60;;
7529;SDS011;3806;52.270;10.544;2022-12-18T09:16:20;17.73;;;9.23;;
7529;SDS011;3806;52.270;10.544;2022-12-18T09:18:46;15.07;;;8.52;;
7529;SDS011;3806;52.270;10.544;2022-12-18T09:21:17;22.15;;;10.48;;
7529;SDS011;3806;52.270;10.544;2022-12-18T09:23:48;14.88;;;8.35;;
7529;SDS011;3806;52.270;10.544;2022-12-18T09:26:15;14.05;;;9.02;;
7529;SDS011;3806;52.270;10.544;2022-12-18T09:28:40;18.83;;;9.55;;
7529;SDS011;3806;52.270;10.544;2022-12-18T09:31:07;18.08;;;9.40;;
7529;SDS011;3806;52.270;10.544;2022-12-18T09:33:37;17.85;;;10.48;;
7529;SDS011;3806;52.270;10.544;2022-12-18T09:36:03;16.88;;;9.40;;
7529;SDS011;3806;52.270;10.544;2022-12-18T09:38:31;15.88;;;8.57;;
7529;SDS011;3806;52.270;10.544;2022-12-18T09:40:59;15.60;;;9.55;;
7529;SDS011;3806;52.270;10.544;2022-12-18T09:46:10;16.92;;;8.70;;
7529;SDS011;3806;52.270;10.544;2022-12-18T09:48:46;16.92;;;8.57;;
7529;SDS011;3806;52.270;10.544;2022-12-18T09:51:17;15.80;;;9.02;;
7529;SDS011;3806;52.270;10.544;2022-12-18T09:53:50;16.15;;;8.43;;
7529;SDS011;3806;52.270;10.544;2022-12-18T09:56:22;16.45;;;7.88;;
7529;SDS011;3806;52.270;10.544;2022-12-18T09:59:00;14.57;;;7.30;;
7529;SDS011;3806;52.270;10.544;2022-12-18T10:01:28;15.48;;;7.85;;
7529;SDS011;3806;52.270;10.544;2022-12-18T10:03:54;17.67;;;7.63;;
7529;SDS011;3806;52.270;10.544;2022-12-18T10:09:00;14.75;;;6.47;;
7529;SDS011;3806;52.270;10.544;2022-12-18T10:11:34;14.70;;;7.50;;
7529;SDS011;3806;52.270;10.544;2022-12-18T10:14:45;15.65;;;7.18;;
7529;SDS011;3806;52.270;10.544;2022-12-18T10:19:56;13.07;;;7.93;;
7529;SDS011;3806;52.270;10.544;2022-12-18T10:25:24;15.65;;;7.50;;
7529;SDS011;3806;52.270;10.544;2022-12-18T10:27:58;11.77;;;6.07;;
7529;SDS011;3806;52.270;10.544;2022-12-18T10:30:34;7.40;;;5.43;;
7529;SDS011;3806;52.270;10.544;2022-12-18T10:33:00;14.23;;;7.20;;
7529;SDS011;3806;52.270;10.544;2022-12-18T10:35:29;12.93;;;6.15;;
7529;SDS011;3806;52.270;10.544;2022-12-18T10:38:05;14.45;;;7.50;;
7529;SDS011;3806;52.270;10.544;2022-12-18T10:40:31;10.30;;;5.05;;
7529;SDS011;3806;52.270;10.544;2022-12-18T10:43:04;12.57;;;6.95;;
7529;SDS011;3806;52.270;10.544;2022-12-18T10:45:36;7.22;;;5.68;;
7529;SDS011;3806;52.270;10.544;2022-12-18T10:48:01;13.35;;;7.45;;
7529;SDS011;3806;52.270;10.544;2022-12-18T10:50:30;12.35;;;7.47;;
7529;SDS011;3806;52.270;10.544;2022-12-18T10:52:58;11.68;;;7.40;;
7529;SDS011;3806;52.270;10.544;2022-12-18T10:55:27;15.73;;;7.63;;
7529;SDS011;3806;52.270;10.544;2022-12-18T11:01:07;11.13;;;7.05;;
7529;SDS011;3806;52.270;10.544;2022-12-18T11:03:45;14.18;;;7.65;;
7529;SDS011;3806;52.270;10.544;2022-12-18T11:08:38;15.30;;;7.95;;
7529;SDS011;3806;52.270;10.544;2022-12-18T11:11:07;14.77;;;7.70;;
7529;SDS011;3806;52.270;10.544;2022-12-18T11:16:44;17.17;;;7.07;;
7529;SDS011;3806;52.270;10.544;2022-12-18T11:21:56;17.55;;;7.10;;
7529;SDS011;3806;52.270;10.544;2022-12-18T11:27:00;12.90;;;8.05;;
7529;SDS011;3806;52.270;10.544;2022-12-18T11:29:31;14.35;;;8.68;;
7529;SDS011;3806;52.270;10.544;2022-12-18T11:34:39;12.88;;;6.97;;
7529;SDS011;3806;52.270;10.544;2022-12-18T11:37:09;13.40;;;7.97;;
7529;SDS011;3806;52.270;10.544;2022-12-18T11:39:38;17.73;;;10.00;;
7529;SDS011;3806;52.270;10.544;2022-12-18T11:50:18;16.48;;;9.10;;
7529;SDS011;3806;52.270;10.544;2022-12-18T11:52:47;14.10;;;7.32;;
7529;SDS011;3806;52.270;10.544;2022-12-18T11:55:14;12.20;;;7.60;;
7529;SDS011;3806;52.270;10.544;2022-12-18T12:00:23;15.43;;;8.38;;
7529;SDS011;3806;52.270;10.544;2022-12-18T12:08:46;14.98;;;7.97;;
7529;SDS011;3806;52.270;10.544;2022-12-18T12:16:50;12.95;;;6.43;;
7529;SDS011;3806;52.270;10.544;2022-12-18T12:27:42;8.40;;;5.50;;
7529;SDS011;3806;52.270;10.544;2022-12-18T12:30:11;13.13;;;5.97;;
7529;SDS011;3806;52.270;10.544;2022-12-18T12:32:53;9.52;;;6.25;;
7529;SDS011;3806;52.270;10.544;2022-12-18T12:38:24;9.93;;;6.35;;
7529;SDS011;3806;52.270;10.544;2022-12-18T12:41:04;10.90;;;6.05;;
7529;SDS011;3806;52.270;10.544;2022-12-18T12:43:53;9.00;;;5.57;;
7529;SDS011;3806;52.270;10.544;2022-12-18T12:46:22;9.98;;;5.97;;
7529;SDS011;3806;52.270;10.544;2022-12-18T12:48:52;10.80;;;5.82;;
7529;SDS011;3806;52.270;10.544;2022-12-18T12:51:26;10.32;;;5.25;;
7529;SDS011;3806;52.270;10.544;2022-12-18T12:53:55;8.75;;;5.50;;
7529;SDS011;3806;52.270;10.544;2022-12-18T12:56:24;8.60;;;5.32;;
7529;SDS011;3806;52.270;10.544;2022-12-18T12:59:15;12.02;;;5.65;;
7529;SDS011;3806;52.270;10.544;2022-12-18T13:07:39;7.28;;;4.85;;
7529;SDS011;3806;52.270;10.544;2022-12-18T13:13:02;9.55;;;4.97;;
7529;SDS011;3806;52.270;10.544;2022-12-18T13:31:11;8.80;;;4.50;;
7529;SDS011;3806;52.270;10.544;2022-12-18T13:33:38;7.95;;;4.32;;
7529;SDS011;3806;52.270;10.544;2022-12-18T13:36:11;10.25;;;5.18;;
7529;SDS011;3806;52.270;10.544;2022-12-18T13:38:40;11.20;;;5.18;;
7529;SDS011;3806;52.270;10.544;2022-12-18T13:43:43;7.32;;;4.35;;
7529;SDS011;3806;52.270;10.544;2022-12-18T13:46:24;9.00;;;5.40;;
7529;SDS011;3806;52.270;10.544;2022-12-18T13:49:00;9.98;;;5.40;;
7529;SDS011;3806;52.270;10.544;2022-12-18T13:51:52;14.45;;;4.78;;
7529;SDS011;3806;52.270;10.544;2022-12-18T13:57:00;8.82;;;5.28;;
7529;SDS011;3806;52.270;10.544;2022-12-18T14:01:59;14.82;;;6.60;;
7529;SDS011;3806;52.270;10.544;2022-12-18T14:04:30;16.02;;;7.18;;
7529;SDS011;3806;52.270;10.544;2022-12-18T14:06:58;12.25;;;7.18;;
7529;SDS011;3806;52.270;10.544;2022-12-18T14:09:30;12.65;;;6.07;;
7529;SDS011;3806;52.270;10.544;2022-12-18T14:11:59;17.23;;;8.77;;
7529;SDS011;3806;52.270;10.544;2022-12-18T14:14:45;14.75;;;7.40;;
7529;SDS011;3806;52.270;10.544;2022-12-18T14:17:13;16.77;;;8.80;;
7529;SDS011;3806;52.270;10.544;2022-12-18T14:19:44;14.23;;;7.80;;
7529;SDS011;3806;52.270;10.544;2022-12-18T14:22:15;14.98;;;8.13;;
7529;SDS011;3806;52.270;10.544;2022-12-18T14:24:46;13.10;;;8.00;;
7529;SDS011;3806;52.270;10.544;2022-12-18T14:27:29;15.00;;;7.38;;
7529;SDS011;3806;52.270;10.544;2022-12-18T14:29:54;14.48;;;6.88;;
7529;SDS011;3806;52.270;10.544;2022-12-18T14:32:20;14.02;;;7.28;;
7529;SDS011;3806;52.270;10.544;2022-12-18T14:34:47;13.98;;;7.22;;
7529;SDS011;3806;52.270;10.544;2022-12-18T14:37:23;12.20;;;7.30;;
7529;SDS011;3806;52.270;10.544;2022-12-18T14:42:28;11.98;;;6.93;;
7529;SDS011;3806;52.270;10.544;2022-12-18T14:47:58;14.07;;;6.43;;
7529;SDS011;3806;52.270;10.544;2022-12-18T14:50:24;11.77;;;5.82;;
7529;SDS011;3806;52.270;10.544;2022-12-18T14:52:51;12.95;;;6.68;;
7529;SDS011;3806;52.270;10.544;2022-12-18T14:55:17;8.93;;;5.38;;
7529;SDS011;3806;52.270;10.544;2022-12-18T14:57:44;11.38;;;6.60;;
7529;SDS011;3806;52.270;10.544;2022-12-18T15:00:15;10.50;;;6.20;;
7529;SDS011;3806;52.270;10.544;2022-12-18T15:02:55;10.30;;;5.20;;
7529;SDS011;3806;52.270;10.544;2022-12-18T15:05:28;10.77;;;6.57;;
7529;SDS011;3806;52.270;10.544;2022-12-18T15:07:57;11.20;;;6.60;;
7529;SDS011;3806;52.270;10.544;2022-12-18T15:20:31;15.80;;;7.00;;
7529;SDS011;3806;52.270;10.544;2022-12-18T15:23:26;8.88;;;5.57;;
7529;SDS011;3806;52.270;10.544;2022-12-18T15:25:57;10.00;;;5.38;;
7529;SDS011;3806;52.270;10.544;2022-12-18T15:28:26;8.07;;;5.68;;
7529;SDS011;3806;52.270;10.544;2022-12-18T15:33:34;8.57;;;5.32;;
7529;SDS011;3806;52.270;10.544;2022-12-18T15:36:07;11.82;;;5.40;;
7529;SDS011;3806;52.270;10.544;2022-12-18T15:38:34;8.90;;;4.68;;
7529;SDS011;3806;52.270;10.544;2022-12-18T15:41:00;7.22;;;4.78;;
7529;SDS011;3806;52.270;10.544;2022-12-18T15:43:27;10.57;;;5.00;;
7529;SDS011;3806;52.270;10.544;2022-12-18T15:48:40;8.70;;;4.95;;
7529;SDS011;3806;52.270;10.544;2022-12-18T15:53:45;9.98;;;6.05;;
7529;SDS011;3806;52.270;10.544;2022-12-18T15:56:12;12.90;;;5.20;;
7529;SDS011;3806;52.270;10.544;2022-12-18T15:58:58;10.60;;;5.07;;
7529;SDS011;3806;52.270;10.544;2022-12-18T16:01:25;9.25;;;5.47;;
7529;SDS011;3806;52.270;10.544;2022-12-18T16:03:52;10.40;;;5.07;;
7529;SDS011;3806;52.270;10.544;2022-12-18T16:06:18;10.88;;;6.55;;
7529;SDS011;3806;52.270;10.544;2022-12-18T16:08:44;9.07;;;5.25;;
7529;SDS011;3806;52.270;10.544;2022-12-18T16:14:03;9.70;;;5.85;;
7529;SDS011;3806;52.270;10.544;2022-12-18T16:16:44;8.70;;;6.28;;
7529;SDS011;3806;52.270;10.544;2022-12-18T16:19:10;12.70;;;6.15;;
7529;SDS011;3806;52.270;10.544;2022-12-18T16:21:37;9.88;;;6.03;;
7529;SDS011;3806;52.270;10.544;2022-12-18T16:24:02;9.52;;;5.50;;
7529;SDS011;3806;52.270;10.544;2022-12-18T16:26:28;13.90;;;6.00;;
7529;SDS011;3806;52.270;10.544;2022-12-18T16:28:56;10.00;;;6.38;;
7529;SDS011;3806;52.270;10.544;2022-12-18T16:31:22;9.35;;;5.45;;
7529;SDS011;3806;52.270;10.544;2022-12-18T16:33:48;8.85;;;6.38;;
7529;SDS011;3806;52.270;10.544;2022-12-18T16:36:13;11.98;;;6.40;;
7529;SDS011;3806;52.270;10.544;2022-12-18T16:38:39;10.88;;;6.32;;
7529;SDS011;3806;52.270;10.544;2022-12-18T16:41:14;9.95;;;4.88;;
7529;SDS011;3806;52.270;10.544;2022-12-18T16:44:01;9.57;;;6.57;;
7529;SDS011;3806;52.270;10.544;2022-12-18T16:46:28;7.85;;;5.60;;
7529;SDS011;3806;52.270;10.544;2022-12-18T16:48:54;8.32;;;6.03;;
7529;SDS011;3806;52.270;10.544;2022-12-18T16:51:21;10.88;;;6.68;;
7529;SDS011;3806;52.270;10.544;2022-12-18T16:53:47;10.02;;;6.25;;
7529;SDS011;3806;52.270;10.544;2022-12-18T16:56:12;10.38;;;6.00;;
7529;SDS011;3806;52.270;10.544;2022-12-18T16:58:38;14.52;;;6.65;;
7529;SDS011;3806;52.270;10.544;2022-12-18T17:01:07;14.85;;;6.57;;
7529;SDS011;3806;52.270;10.544;2022-12-18T17:03:34;13.90;;;7.60;;
7529;SDS011;3806;52.270;10.544;2022-12-18T17:06:03;11.20;;;6.47;;
7529;SDS011;3806;52.270;10.544;2022-12-18T17:08:29;10.73;;;6.63;;
7529;SDS011;3806;52.270;10.544;2022-12-18T17:10:55;13.43;;;6.82;;
7529;SDS011;3806;52.270;10.544;2022-12-18T17:13:21;10.63;;;5.95;;
7529;SDS011;3806;52.270;10.544;2022-12-18T17:15:46;12.55;;;5.97;;